createdAt,value
2023-03-17T00:01:54.498Z,1.00
2023-03-17T00:04:26.507Z,1.10
2023-03-17T00:06:54.376Z,0.80
2023-03-17T00:09:22.087Z,0.80
2023-03-17T00:11:49.924Z,0.80
2023-03-17T00:14:17.668Z,0.90
2023-03-17T00:16:49.697Z,1.00
2023-03-17T00:19:32.729Z,0.88
2023-03-17T00:22:01.326Z,0.70
2023-03-17T00:24:29.484Z,0.80
2023-03-17T00:26:56.721Z,0.70
2023-03-17T00:29:25.308Z,0.80
2023-03-17T00:31:53.088Z,0.68
2023-03-17T00:34:20.199Z,0.60
2023-03-17T00:36:50.540Z,0.60
2023-03-17T00:39:18.513Z,0.73
2023-03-17T00:44:13.163Z,0.50
2023-03-17T00:46:41.370Z,0.50
2023-03-17T00:49:23.530Z,0.63
2023-03-17T00:51:51.289Z,0.53
2023-03-17T00:54:20.635Z,0.38
2023-03-17T00:56:49.415Z,0.50
2023-03-17T00:59:42.800Z,0.40
2023-03-17T01:02:13.741Z,0.40
2023-03-17T01:04:44.050Z,0.40
2023-03-17T01:07:14.019Z,0.50
2023-03-17T01:09:41.695Z,0.35
2023-03-17T01:12:12.649Z,0.70
2023-03-17T01:14:40.809Z,0.68
2023-03-17T01:17:18.221Z,0.80
2023-03-17T01:19:46.287Z,0.63
2023-03-17T01:22:13.939Z,0.60
2023-03-17T01:24:41.100Z,0.43
2023-03-17T01:27:08.326Z,0.40
2023-03-17T01:29:35.367Z,0.50
2023-03-17T01:32:02.603Z,0.50
2023-03-17T01:34:29.697Z,0.40
2023-03-17T01:36:56.899Z,0.50
2023-03-17T01:39:24.007Z,0.60
2023-03-17T01:41:56.616Z,0.60
2023-03-17T01:44:25.600Z,0.50
2023-03-17T01:46:53.636Z,0.40
2023-03-17T01:49:37.346Z,0.40
2023-03-17T01:52:12.516Z,0.40
2023-03-17T01:54:48.103Z,0.40
2023-03-17T01:57:29.539Z,0.35
2023-03-17T02:00:05.675Z,0.30
2023-03-17T02:02:37.048Z,0.40
2023-03-17T02:05:07.948Z,0.40
2023-03-17T02:07:35.334Z,0.30
2023-03-17T02:10:04.032Z,0.30
2023-03-17T02:12:31.125Z,0.30
2023-03-17T02:14:58.411Z,0.30
2023-03-17T02:17:27.652Z,0.30
2023-03-17T02:19:56.249Z,0.55
2023-03-17T02:22:23.931Z,0.40
2023-03-17T02:24:58.304Z,0.40
2023-03-17T02:27:38.544Z,0.40
2023-03-17T02:30:08.635Z,0.30
2023-03-17T02:32:37.289Z,0.70
2023-03-17T02:35:07.070Z,0.35
2023-03-17T02:37:34.526Z,0.40
2023-03-17T02:40:02.611Z,0.30
2023-03-17T02:42:29.718Z,0.40
2023-03-17T02:44:57.395Z,0.50
2023-03-17T02:47:24.471Z,0.47
2023-03-17T02:49:52.334Z,0.40
2023-03-17T02:52:19.429Z,0.40
2023-03-17T02:54:46.493Z,0.40
2023-03-17T02:57:13.604Z,0.40
2023-03-17T02:59:41.446Z,0.40
2023-03-17T03:02:09.056Z,0.30
2023-03-17T03:04:36.544Z,0.30
2023-03-17T03:07:04.310Z,0.40
2023-03-17T03:09:31.596Z,0.32
2023-03-17T03:11:58.677Z,0.40
2023-03-17T03:14:25.927Z,0.40
2023-03-17T03:16:53.055Z,0.30
2023-03-17T03:19:20.267Z,0.40
2023-03-17T03:21:47.356Z,0.38
2023-03-17T03:24:14.436Z,0.50
2023-03-17T03:26:41.500Z,0.35
2023-03-17T03:29:09.009Z,0.50
2023-03-17T03:31:36.066Z,0.40
2023-03-17T03:34:03.171Z,0.60
2023-03-17T03:36:30.384Z,0.40
2023-03-17T03:38:58.088Z,0.30
2023-03-17T03:41:25.433Z,0.47
2023-03-17T03:43:52.739Z,0.40
2023-03-17T03:46:19.899Z,0.30
2023-03-17T03:48:47.007Z,0.30
2023-03-17T03:51:14.101Z,0.20
2023-03-17T03:53:41.170Z,0.30
2023-03-17T03:56:08.275Z,0.32
2023-03-17T03:58:35.608Z,0.30
2023-03-17T04:01:07.297Z,0.30
2023-03-17T04:03:34.393Z,0.30
2023-03-17T04:06:01.464Z,0.50
2023-03-17T04:08:28.502Z,0.30
2023-03-17T04:10:55.555Z,0.38
2023-03-17T04:13:22.898Z,0.30
2023-03-17T04:15:50.249Z,0.28
2023-03-17T04:18:17.368Z,0.30
2023-03-17T04:20:44.479Z,0.30
2023-03-17T04:23:11.806Z,0.40
2023-03-17T04:25:38.920Z,0.40
2023-03-17T04:28:06.428Z,0.30
2023-03-17T04:30:33.462Z,0.60
2023-03-17T04:33:00.980Z,0.50
2023-03-17T04:35:28.078Z,0.50
2023-03-17T04:37:55.439Z,0.50
2023-03-17T04:40:22.658Z,0.40
2023-03-17T04:42:49.794Z,0.40
2023-03-17T04:45:16.926Z,0.30
2023-03-17T04:47:46.071Z,0.40
2023-03-17T04:50:14.194Z,0.50
2023-03-17T04:52:42.019Z,0.40
2023-03-17T04:55:09.603Z,0.65
2023-03-17T04:57:37.316Z,0.47
2023-03-17T05:00:07.167Z,0.40
2023-03-17T05:02:34.584Z,0.50
2023-03-17T05:05:02.032Z,0.40
2023-03-17T05:07:29.107Z,0.47
2023-03-17T05:09:56.967Z,0.30
2023-03-17T05:12:24.107Z,0.50
2023-03-17T05:14:51.156Z,0.40
2023-03-17T05:17:18.290Z,0.40
2023-03-17T05:19:45.331Z,0.40
2023-03-17T05:22:12.509Z,0.50
2023-03-17T05:24:39.620Z,0.40
2023-03-17T05:27:06.742Z,0.40
2023-03-17T05:29:33.838Z,0.50
2023-03-17T05:32:00.916Z,0.40
2023-03-17T05:34:27.983Z,0.30
2023-03-17T05:36:55.338Z,0.40
2023-03-17T05:39:22.546Z,0.40
2023-03-17T05:41:50.336Z,0.25
2023-03-17T05:44:17.396Z,0.30
2023-03-17T05:46:44.464Z,0.30
2023-03-17T05:49:11.501Z,0.50
2023-03-17T05:51:38.665Z,0.40
2023-03-17T05:54:05.798Z,0.70
2023-03-17T05:56:33.683Z,0.90
2023-03-17T05:59:02.266Z,0.55
2023-03-17T06:01:29.968Z,0.50
2023-03-17T06:03:57.291Z,0.50
2023-03-17T06:06:24.554Z,0.33
2023-03-17T06:08:51.723Z,0.50
2023-03-17T06:11:22.211Z,0.63
2023-03-17T06:13:49.287Z,0.40
2023-03-17T06:16:16.599Z,0.50
2023-03-17T06:18:45.266Z,0.50
2023-03-17T06:21:13.182Z,0.50
2023-03-17T06:23:40.487Z,0.70
2023-03-17T06:26:07.631Z,0.50
2023-03-17T06:28:34.773Z,0.40
2023-03-17T06:31:02.004Z,0.47
2023-03-17T06:33:29.113Z,0.30
2023-03-17T06:35:58.492Z,0.30
2023-03-17T06:38:25.660Z,0.40
2023-03-17T06:40:52.804Z,0.30
2023-03-17T06:43:20.151Z,0.30
2023-03-17T06:45:47.365Z,0.35
2023-03-17T06:48:14.404Z,0.32
2023-03-17T06:50:41.472Z,0.60
2023-03-17T06:53:08.650Z,0.70
2023-03-17T06:55:35.788Z,0.80
2023-03-17T06:58:03.162Z,0.98
2023-03-17T07:00:30.324Z,0.90
2023-03-17T07:02:57.783Z,0.70
2023-03-17T07:05:24.964Z,0.90
2023-03-17T07:07:52.112Z,1.10
2023-03-17T07:10:19.300Z,0.70
2023-03-17T07:12:46.942Z,0.88
2023-03-17T07:15:14.646Z,0.60
2023-03-17T07:17:41.966Z,0.50
2023-03-17T07:20:10.690Z,0.50
2023-03-17T07:22:37.934Z,0.50
2023-03-17T07:25:05.463Z,0.50
2023-03-17T07:27:32.583Z,0.40
2023-03-17T07:30:04.057Z,0.40
2023-03-17T07:32:32.479Z,0.57
2023-03-17T07:34:59.652Z,1.60
2023-03-17T07:37:26.721Z,1.00
2023-03-17T07:39:53.764Z,0.90
2023-03-17T07:42:21.642Z,1.40
2023-03-17T07:44:48.746Z,1.13
2023-03-17T07:47:16.223Z,1.10
2023-03-17T07:49:43.791Z,1.23
2023-03-17T07:52:11.415Z,0.82
2023-03-17T07:54:42.219Z,0.80
2023-03-17T07:57:10.327Z,0.80
2023-03-17T07:59:38.267Z,0.77
2023-03-17T08:02:06.641Z,0.80
2023-03-17T08:04:35.614Z,0.70
2023-03-17T08:07:03.110Z,0.70
2023-03-17T08:09:30.585Z,0.57
2023-03-17T08:11:57.859Z,0.60
2023-03-17T08:14:24.984Z,0.60
2023-03-17T08:16:54.051Z,0.50
2023-03-17T08:19:21.988Z,0.40
2023-03-17T08:21:49.744Z,0.60
2023-03-17T08:24:17.549Z,0.50
2023-03-17T08:26:49.207Z,0.50
2023-03-17T08:29:16.461Z,0.43
2023-03-17T08:31:46.309Z,0.60
2023-03-17T08:34:14.002Z,0.40
2023-03-17T08:36:41.372Z,0.50
2023-03-17T08:39:10.343Z,0.60
2023-03-17T08:41:38.323Z,0.60
2023-03-17T08:44:05.595Z,0.33
2023-03-17T08:46:32.919Z,0.40
2023-03-17T08:49:00.989Z,0.40
2023-03-17T08:51:34.582Z,0.50
2023-03-17T08:54:02.988Z,0.40
2023-03-17T08:56:30.132Z,0.40
2023-03-17T08:58:58.437Z,0.40
2023-03-17T09:01:27.251Z,0.35
2023-03-17T09:03:55.144Z,0.40
2023-03-17T09:06:23.042Z,0.45
2023-03-17T09:08:55.120Z,0.45
2023-03-17T09:11:28.405Z,0.30
2023-03-17T09:13:56.332Z,0.30
2023-03-17T09:16:24.659Z,0.30
2023-03-17T09:18:52.376Z,0.50
2023-03-17T09:21:21.102Z,0.50
2023-03-17T09:23:48.329Z,0.50
2023-03-17T09:26:15.581Z,0.68
2023-03-17T09:28:42.783Z,0.50
2023-03-17T09:31:12.181Z,0.50
2023-03-17T09:33:40.820Z,0.30
2023-03-17T09:36:09.323Z,0.40
2023-03-17T09:38:37.135Z,0.50
2023-03-17T09:41:47.748Z,0.30
2023-03-17T09:44:38.536Z,0.40
2023-03-17T09:47:27.408Z,0.30
2023-03-17T09:49:59.924Z,0.50
2023-03-17T09:52:34.318Z,0.63
2023-03-17T09:55:05.127Z,0.50
2023-03-17T09:57:37.956Z,0.60
2023-03-17T10:00:20.636Z,0.20
2023-03-17T10:02:47.720Z,0.20
2023-03-17T10:05:21.230Z,0.30
2023-03-17T10:08:27.003Z,0.40
2023-03-17T10:10:59.272Z,0.30
2023-03-17T10:13:48.331Z,0.70
2023-03-17T10:16:30.164Z,0.50
2023-03-17T10:19:23.696Z,0.60
2023-03-17T10:21:55.438Z,1.10
2023-03-17T10:24:24.249Z,1.25
2023-03-17T10:26:53.347Z,1.23
2023-03-17T10:29:23.730Z,1.05
2023-03-17T10:31:53.170Z,1.00
2023-03-17T10:34:25.405Z,0.80
2023-03-17T10:37:19.489Z,0.70
2023-03-17T10:39:49.592Z,1.75
2023-03-17T10:42:25.977Z,1.60
2023-03-17T10:45:16.562Z,1.08
2023-03-17T10:47:48.866Z,3.58
2023-03-17T10:50:25.251Z,2.08
2023-03-17T10:53:04.603Z,1.25
2023-03-17T10:55:42.583Z,0.90
2023-03-17T10:58:09.609Z,0.80
2023-03-17T11:00:38.332Z,1.77
2023-03-17T11:03:27.410Z,1.48
2023-03-17T11:06:02.191Z,0.80
2023-03-17T11:08:33.208Z,2.00
2023-03-17T11:11:00.537Z,2.80
2023-03-17T11:13:30.947Z,1.98
2023-03-17T11:16:22.048Z,1.80
2023-03-17T11:18:53.134Z,1.80
2023-03-17T11:21:25.542Z,1.27
2023-03-17T11:24:14.148Z,0.90
2023-03-17T11:27:06.798Z,1.10
2023-03-17T11:30:00.391Z,1.42
2023-03-17T11:32:53.513Z,1.20
2023-03-17T11:35:34.120Z,1.50
2023-03-17T11:38:04.190Z,1.30
2023-03-17T11:40:44.792Z,1.83
2023-03-17T11:43:30.097Z,1.40
2023-03-17T11:46:21.077Z,1.30
2023-03-17T11:49:10.781Z,1.60
2023-03-17T11:51:50.656Z,1.58
2023-03-17T11:54:34.288Z,1.60
2023-03-17T11:57:05.617Z,1.55
2023-03-17T11:59:39.096Z,1.60
2023-03-17T12:02:22.322Z,1.10
2023-03-17T12:04:58.182Z,1.00
2023-03-17T12:07:33.089Z,1.10
2023-03-17T12:10:24.118Z,1.52
2023-03-17T12:13:40.142Z,1.42
2023-03-17T12:16:15.574Z,1.25
2023-03-17T12:19:07.058Z,1.20
2023-03-17T12:22:03.563Z,1.02
2023-03-17T12:24:50.297Z,0.90
2023-03-17T12:27:29.882Z,0.98
2023-03-17T12:30:18.378Z,0.93
2023-03-17T12:33:00.579Z,0.65
2023-03-17T12:35:34.190Z,0.80
2023-03-17T12:38:09.042Z,0.70
2023-03-17T12:40:54.486Z,0.70
2023-03-17T12:43:34.497Z,0.60
2023-03-17T12:46:12.253Z,0.60
2023-03-17T12:49:14.436Z,0.60
2023-03-17T12:51:53.191Z,0.57
2023-03-17T12:54:26.949Z,0.60
2023-03-17T12:57:02.598Z,0.60
2023-03-17T12:59:31.237Z,0.70
2023-03-17T13:02:15.452Z,0.70
2023-03-17T13:04:57.589Z,0.60
2023-03-17T13:07:51.123Z,0.55
2023-03-17T13:10:27.567Z,0.60
2023-03-17T13:12:56.569Z,0.60
2023-03-17T13:15:35.970Z,0.73
2023-03-17T13:18:12.342Z,0.70
2023-03-17T13:20:43.145Z,0.70
2023-03-17T13:23:10.250Z,0.90
2023-03-17T13:25:41.679Z,0.90
2023-03-17T13:28:15.059Z,1.00
2023-03-17T13:31:04.134Z,1.08
2023-03-17T13:33:32.438Z,1.10
2023-03-17T13:36:08.263Z,1.20
2023-03-17T13:38:35.371Z,1.13
2023-03-17T13:41:57.669Z,1.20
2023-03-17T13:44:28.928Z,1.20
2023-03-17T13:47:15.756Z,0.70
2023-03-17T13:49:48.370Z,0.70
2023-03-17T13:52:23.185Z,0.80
2023-03-17T13:55:01.576Z,0.80
2023-03-17T13:57:37.735Z,0.70
2023-03-17T14:00:21.789Z,1.00
2023-03-17T14:02:55.106Z,1.10
2023-03-17T14:05:29.850Z,1.05
2023-03-17T14:08:13.876Z,1.10
2023-03-17T14:10:43.370Z,1.90
2023-03-17T14:13:20.463Z,2.50
2023-03-17T14:15:56.878Z,2.00
2023-03-17T14:18:32.858Z,2.80
2023-03-17T14:21:02.672Z,2.40
2023-03-17T14:23:29.982Z,2.30
2023-03-17T14:26:01.527Z,2.30
2023-03-17T14:28:34.380Z,2.05
2023-03-17T14:31:05.264Z,2.20
2023-03-17T14:33:38.131Z,2.30
2023-03-17T14:36:09.000Z,1.70
2023-03-17T14:38:38.490Z,2.05
2023-03-17T14:41:14.195Z,1.60
2023-03-17T14:43:43.381Z,1.50
2023-03-17T14:46:16.002Z,2.10
2023-03-17T14:48:46.444Z,1.73
2023-03-17T14:51:24.260Z,1.60
2023-03-17T14:53:52.908Z,1.65
2023-03-17T14:56:25.777Z,1.30
2023-03-17T14:58:53.135Z,1.20
2023-03-17T15:01:41.924Z,1.80
2023-03-17T15:04:16.711Z,1.48
2023-03-17T15:06:57.227Z,1.20
2023-03-17T15:09:33.389Z,1.33
2023-03-17T15:12:24.062Z,1.13
2023-03-17T15:14:53.580Z,1.20
2023-03-17T15:17:27.454Z,0.88
2023-03-17T15:20:00.346Z,0.80
2023-03-17T15:22:31.761Z,0.80
2023-03-17T15:25:14.704Z,0.60
2023-03-17T15:27:41.819Z,0.55
2023-03-17T15:30:10.170Z,2.13
2023-03-17T15:32:37.886Z,0.90
2023-03-17T15:35:06.594Z,0.60
2023-03-17T15:37:35.362Z,1.63
2023-03-17T15:40:05.345Z,0.70
2023-03-17T15:42:35.687Z,1.10
2023-03-17T15:45:03.908Z,1.00
2023-03-17T15:47:33.382Z,1.00
2023-03-17T15:50:11.953Z,1.20
2023-03-17T15:52:39.042Z,1.07
2023-03-17T15:55:13.755Z,1.00
2023-03-17T15:57:42.836Z,1.40
2023-03-17T16:00:20.741Z,1.30
2023-03-17T16:02:51.757Z,1.40
2023-03-17T16:05:28.025Z,1.30
2023-03-17T16:07:55.524Z,1.15
2023-03-17T16:10:26.070Z,1.02
2023-03-17T16:12:53.862Z,1.08
2023-03-17T16:15:27.018Z,1.20
2023-03-17T16:17:58.240Z,1.10
2023-03-17T16:20:47.064Z,1.05
2023-03-17T16:23:16.238Z,1.10
2023-03-17T16:25:44.266Z,1.10
2023-03-17T16:28:20.629Z,1.20
2023-03-17T16:30:49.076Z,1.25
2023-03-17T16:33:40.911Z,1.10
2023-03-17T16:36:13.499Z,0.90
2023-03-17T16:38:40.814Z,0.88
2023-03-17T16:41:09.197Z,0.95
2023-03-17T16:43:37.833Z,0.70
2023-03-17T16:46:06.944Z,0.80
2023-03-17T16:48:34.551Z,0.60
2023-03-17T16:51:01.809Z,0.60
2023-03-17T16:53:28.857Z,0.68
2023-03-17T16:55:56.371Z,0.70
2023-03-17T16:58:25.769Z,0.60
2023-03-17T17:00:58.485Z,0.90
2023-03-17T17:03:25.585Z,0.90
2023-03-17T17:05:52.696Z,0.90
2023-03-17T17:08:19.898Z,0.80
2023-03-17T17:10:46.982Z,0.90
2023-03-17T17:13:14.208Z,0.87
2023-03-17T17:15:42.227Z,0.80
2023-03-17T17:18:27.609Z,0.90
2023-03-17T17:20:54.835Z,0.80
2023-03-17T17:23:24.360Z,0.80
2023-03-17T17:25:52.633Z,1.02
2023-03-17T17:28:22.622Z,0.90
2023-03-17T17:30:51.799Z,0.95
2023-03-17T17:33:19.836Z,1.10
2023-03-17T17:35:47.773Z,1.00
2023-03-17T17:38:28.358Z,1.00
2023-03-17T17:40:58.225Z,1.08
2023-03-17T17:43:25.741Z,0.90
2023-03-17T17:45:53.386Z,0.73
2023-03-17T17:48:23.635Z,0.77
2023-03-17T17:50:52.187Z,0.70
2023-03-17T17:53:19.406Z,0.60
2023-03-17T17:55:48.007Z,0.52
2023-03-17T17:58:18.571Z,0.60
2023-03-17T18:00:46.044Z,0.70
2023-03-17T18:03:13.103Z,0.80
2023-03-17T18:05:40.251Z,1.20
2023-03-17T18:08:07.329Z,2.13
2023-03-17T18:10:34.984Z,2.15
2023-03-17T18:13:02.239Z,1.58
2023-03-17T18:15:29.370Z,1.60
2023-03-17T18:17:56.610Z,1.42
2023-03-17T18:20:24.430Z,1.25
2023-03-17T18:22:52.230Z,1.40
2023-03-17T18:25:19.851Z,1.35
2023-03-17T18:27:47.597Z,1.15
2023-03-17T18:30:25.079Z,1.30
2023-03-17T18:32:55.498Z,1.10
2023-03-17T18:35:25.295Z,1.00
2023-03-17T18:37:52.566Z,1.20
2023-03-17T18:40:20.547Z,0.90
2023-03-17T18:42:47.642Z,0.70
2023-03-17T18:45:15.417Z,0.73
2023-03-17T18:47:42.510Z,0.75
2023-03-17T18:50:12.589Z,0.88
2023-03-17T18:52:41.526Z,1.00
2023-03-17T18:55:11.069Z,0.88
2023-03-17T18:57:38.242Z,0.70
2023-03-17T19:00:08.490Z,1.00
2023-03-17T19:02:36.734Z,0.80
2023-03-17T19:05:04.674Z,0.80
2023-03-17T19:07:31.954Z,0.77
2023-03-17T19:09:59.485Z,0.70
2023-03-17T19:12:26.653Z,0.70
2023-03-17T19:14:53.749Z,0.70
2023-03-17T19:17:20.897Z,0.68
2023-03-17T19:19:50.216Z,0.70
2023-03-17T19:22:17.749Z,0.60
2023-03-17T19:24:45.965Z,0.60
2023-03-17T19:27:13.258Z,0.60
2023-03-17T19:29:40.300Z,0.60
2023-03-17T19:32:07.728Z,0.60
2023-03-17T19:34:35.192Z,0.60
2023-03-17T19:37:03.655Z,0.50
2023-03-17T19:39:31.423Z,0.50
2023-03-17T19:41:59.128Z,0.40
2023-03-17T19:44:26.923Z,0.50
2023-03-17T19:46:54.108Z,0.60
2023-03-17T19:49:21.393Z,0.40
2023-03-17T19:51:49.519Z,0.50
2023-03-17T19:54:18.629Z,0.52
2023-03-17T19:56:45.801Z,0.40
2023-03-17T19:59:15.216Z,0.50
2023-03-17T20:01:42.594Z,0.60
2023-03-17T20:04:11.313Z,0.43
2023-03-17T20:06:38.521Z,0.50
2023-03-17T20:09:08.596Z,0.50
2023-03-17T20:11:35.965Z,0.80
2023-03-17T20:14:03.923Z,0.60
2023-03-17T20:16:33.482Z,0.60
2023-03-17T20:19:01.283Z,0.60
2023-03-17T20:21:28.513Z,0.50
2023-03-17T20:23:56.224Z,0.60
2023-03-17T20:26:24.458Z,0.52
2023-03-17T20:28:51.606Z,0.50
2023-03-17T20:31:19.179Z,0.57
2023-03-17T20:33:46.348Z,0.70
2023-03-17T20:36:13.912Z,0.50
2023-03-17T20:38:43.512Z,0.60
2023-03-17T20:41:17.065Z,0.47
2023-03-17T20:43:45.084Z,1.05
2023-03-17T20:46:16.163Z,0.65
2023-03-17T20:48:44.290Z,0.70
2023-03-17T20:51:16.218Z,0.60
2023-03-17T20:53:47.454Z,0.60
2023-03-17T20:56:22.464Z,0.50
2023-03-17T20:58:50.455Z,0.47
2023-03-17T21:01:20.919Z,0.60
2023-03-17T21:03:49.342Z,0.80
2023-03-17T21:06:17.450Z,0.50
2023-03-17T21:08:46.033Z,0.70
2023-03-17T21:11:20.775Z,0.70
2023-03-17T21:13:47.851Z,0.50
2023-03-17T21:16:18.777Z,0.50
2023-03-17T21:18:46.246Z,0.50
2023-03-17T21:21:13.592Z,0.43
2023-03-17T21:23:41.587Z,0.40
2023-03-17T21:26:09.129Z,0.30
2023-03-17T21:28:37.937Z,0.43
2023-03-17T21:31:06.804Z,0.30
2023-03-17T21:33:34.589Z,0.40
2023-03-17T21:36:02.729Z,0.50
2023-03-17T21:38:30.195Z,0.50
2023-03-17T21:40:57.922Z,0.60
2023-03-17T21:43:25.085Z,0.70
2023-03-17T21:45:52.212Z,0.60
2023-03-17T21:48:20.483Z,0.70
2023-03-17T21:50:48.999Z,0.60
2023-03-17T21:53:16.057Z,0.70
2023-03-17T21:55:43.971Z,0.60
2023-03-17T21:58:11.563Z,0.60
2023-03-17T22:00:45.134Z,0.80
2023-03-17T22:03:13.230Z,1.20
2023-03-17T22:05:40.378Z,1.10
2023-03-17T22:08:09.227Z,0.95
2023-03-17T22:10:38.524Z,0.80
2023-03-17T22:13:05.670Z,0.82
2023-03-17T22:15:32.748Z,0.80
2023-03-17T22:17:59.935Z,1.10
2023-03-17T22:20:27.190Z,0.90
2023-03-17T22:22:54.296Z,0.83
2023-03-17T22:25:23.432Z,0.80
2023-03-17T22:27:50.505Z,1.10
2023-03-17T22:30:18.875Z,0.70
2023-03-17T22:32:46.233Z,0.60
2023-03-17T22:35:13.392Z,0.70
2023-03-17T22:37:41.370Z,0.60
2023-03-17T22:40:10.039Z,0.57
2023-03-17T22:42:37.232Z,0.60
2023-03-17T22:45:04.720Z,0.50
2023-03-17T22:47:31.776Z,0.40
2023-03-17T22:49:58.820Z,0.43
2023-03-17T22:52:25.894Z,0.60
2023-03-17T22:54:53.065Z,0.38
2023-03-17T22:57:20.270Z,0.50
2023-03-17T22:59:47.377Z,0.50
2023-03-17T23:02:15.795Z,0.30
2023-03-17T23:04:45.375Z,0.57
2023-03-17T23:07:12.582Z,0.70
2023-03-17T23:09:41.263Z,0.60
2023-03-17T23:12:09.324Z,0.50
2023-03-17T23:14:37.194Z,0.55
2023-03-17T23:17:05.950Z,0.80
2023-03-17T23:19:33.164Z,1.60
2023-03-17T23:22:00.258Z,1.50
2023-03-17T23:24:27.323Z,1.00
2023-03-17T23:26:54.369Z,1.58
2023-03-17T23:29:21.409Z,1.40
2023-03-17T23:31:48.553Z,1.20
2023-03-17T23:34:15.853Z,1.20
2023-03-17T23:36:42.922Z,0.90
2023-03-17T23:39:10.062Z,1.38
2023-03-17T23:41:37.603Z,1.50
2023-03-17T23:44:05.376Z,1.20
2023-03-17T23:46:32.519Z,1.05
2023-03-17T23:48:59.722Z,1.20
2023-03-17T23:51:27.140Z,1.50
2023-03-17T23:53:54.308Z,1.30
2023-03-17T23:56:21.542Z,1.05
2023-03-17T23:58:48.866Z,1.20
